createdAt,value
2022-12-04T00:00:36.632Z,59.84
2022-12-04T00:04:02.106Z,59.88
2022-12-04T00:07:26.367Z,59.89
2022-12-04T00:10:44.911Z,59.87
2022-12-04T00:14:06.951Z,59.84
2022-12-04T00:17:27.187Z,59.87
2022-12-04T00:20:50.246Z,59.89
2022-12-04T00:24:15.252Z,59.90
2022-12-04T00:27:34.465Z,59.88
2022-12-04T00:30:53.982Z,59.93
2022-12-04T00:34:07.986Z,59.95
2022-12-04T00:37:19.956Z,60.03
2022-12-04T00:40:27.490Z,60.03
2022-12-04T00:43:31.058Z,60.01
2022-12-04T00:46:40.794Z,59.95
2022-12-04T00:53:34.525Z,60.05
2022-12-04T00:56:55.447Z,60.13
2022-12-04T01:00:17.266Z,60.10
2022-12-04T01:07:30.348Z,60.21
2022-12-04T01:14:30.190Z,60.28
2022-12-04T01:17:58.810Z,60.28
2022-12-04T01:21:31.333Z,60.32
2022-12-04T01:24:57.874Z,60.32
2022-12-04T01:28:08.724Z,60.29
2022-12-04T01:31:36.862Z,60.30
2022-12-04T01:34:58.050Z,60.26
2022-12-04T01:38:16.990Z,60.23
2022-12-04T01:41:35.122Z,60.38
2022-12-04T01:44:53.030Z,60.44
2022-12-04T01:52:15.969Z,60.42
2022-12-04T01:55:30.553Z,60.42
2022-12-04T01:59:02.420Z,60.43
2022-12-04T02:02:35.061Z,60.43
2022-12-04T02:06:03.326Z,60.38
2022-12-04T02:09:31.235Z,60.37
2022-12-04T02:13:10.845Z,60.31
2022-12-04T02:16:51.638Z,60.37
2022-12-04T02:20:31.409Z,60.48
2022-12-04T02:24:18.454Z,60.46
2022-12-04T02:28:14.761Z,60.47
2022-12-04T02:31:37.566Z,60.33
2022-12-04T02:38:45.898Z,60.13
2022-12-04T02:42:21.544Z,60.25
2022-12-04T02:45:55.103Z,60.41
2022-12-04T02:49:35.355Z,60.46
2022-12-04T03:43:48.629Z,60.45
2022-12-04T03:47:22.951Z,60.40
2022-12-04T03:51:04.439Z,60.42
2022-12-04T03:54:37.106Z,60.45
2022-12-04T03:57:54.953Z,60.45
2022-12-04T04:01:17.084Z,60.40
2022-12-04T04:04:43.211Z,60.40
2022-12-04T04:08:35.744Z,60.33
2022-12-04T04:12:05.212Z,60.34
2022-12-04T04:15:48.399Z,60.35
2022-12-04T04:19:24.603Z,60.31
2022-12-04T04:23:02.218Z,60.41
2022-12-04T04:26:09.922Z,60.39
2022-12-04T04:29:11.781Z,60.41
2022-12-04T04:32:17.291Z,60.49
2022-12-04T04:35:52.139Z,60.50
2022-12-04T04:39:32.643Z,60.62
2022-12-04T04:43:32.506Z,60.61
2022-12-04T04:46:53.728Z,60.63
2022-12-04T04:50:18.974Z,60.63
2022-12-04T04:53:54.516Z,60.51
2022-12-04T04:57:48.165Z,60.41
2022-12-04T05:01:16.210Z,60.42
2022-12-04T05:04:34.814Z,60.46
2022-12-04T05:07:54.225Z,60.51
2022-12-04T05:11:16.021Z,60.49
2022-12-04T05:14:41.178Z,60.50
2022-12-04T05:17:58.563Z,60.48
2022-12-04T05:21:37.407Z,60.40
2022-12-04T05:25:12.477Z,60.44
2022-12-04T05:29:12.811Z,60.42
2022-12-04T05:32:44.027Z,60.18
2022-12-04T05:36:42.785Z,60.29
2022-12-04T05:40:15.061Z,60.32
2022-12-04T05:43:35.516Z,60.28
2022-12-04T05:47:03.411Z,60.31
2022-12-04T05:50:30.746Z,60.44
2022-12-04T05:54:01.854Z,60.25
2022-12-04T05:57:38.326Z,60.16
2022-12-04T06:00:53.910Z,60.25
2022-12-04T06:04:18.290Z,60.40
2022-12-04T06:07:46.720Z,60.33
2022-12-04T06:14:27.872Z,60.29
2022-12-04T06:17:46.554Z,60.26
2022-12-04T06:21:14.722Z,60.18
2022-12-04T06:24:49.994Z,60.24
2022-12-04T06:28:34.930Z,60.33
2022-12-04T06:32:14.031Z,60.33
2022-12-04T06:35:26.537Z,60.33
2022-12-04T06:38:41.537Z,60.31
2022-12-04T06:42:30.912Z,60.31
2022-12-04T06:46:17.629Z,60.32
2022-12-04T06:49:55.004Z,60.13
2022-12-04T06:53:39.720Z,60.12
2022-12-04T06:57:10.181Z,60.13
2022-12-04T07:07:32.384Z,60.19
2022-12-04T07:10:59.045Z,60.19
2022-12-04T07:14:18.927Z,60.16
2022-12-04T07:17:40.897Z,60.01
2022-12-04T07:21:07.861Z,59.98
2022-12-04T07:24:29.498Z,59.73
2022-12-04T07:27:44.434Z,59.71
2022-12-04T07:30:55.344Z,59.80
2022-12-04T07:34:11.976Z,59.94
2022-12-04T07:37:30.354Z,59.99
2022-12-04T07:40:50.856Z,59.92
2022-12-04T07:44:17.024Z,59.96
2022-12-04T07:47:45.874Z,60.05
2022-12-04T07:51:08.705Z,59.97
2022-12-04T07:54:27.889Z,59.81
2022-12-04T07:57:43.601Z,59.75
2022-12-04T08:01:15.563Z,59.75
2022-12-04T08:04:45.665Z,59.74
2022-12-04T08:08:06.638Z,59.66
2022-12-04T08:11:29.508Z,59.74
2022-12-04T08:18:24.126Z,59.46
2022-12-04T08:21:57.067Z,59.38
2022-12-04T08:25:35.122Z,59.11
2022-12-04T08:29:12.525Z,59.21
2022-12-04T08:32:37.466Z,59.23
2022-12-04T08:35:57.530Z,59.26
2022-12-04T08:39:36.673Z,59.17
2022-12-04T08:43:23.634Z,59.29
2022-12-04T08:46:38.397Z,59.38
2022-12-04T08:49:55.998Z,59.37
2022-12-04T08:53:15.287Z,59.39
2022-12-04T09:00:21.178Z,59.22
2022-12-04T09:03:47.709Z,59.26
2022-12-04T09:07:13.559Z,59.25
2022-12-04T09:10:30.731Z,59.17
2022-12-04T09:13:44.083Z,59.12
2022-12-04T09:17:02.444Z,59.07
2022-12-04T09:20:31.552Z,59.11
2022-12-04T09:23:46.905Z,59.08
2022-12-04T09:27:14.711Z,58.94
2022-12-04T09:30:45.988Z,58.91
2022-12-04T09:34:14.282Z,58.95
2022-12-04T09:37:48.023Z,58.97
2022-12-04T09:41:09.686Z,59.04
2022-12-04T09:44:34.031Z,59.00
2022-12-04T09:48:11.914Z,58.90
2022-12-04T09:51:25.721Z,58.74
2022-12-04T09:54:43.931Z,58.63
2022-12-04T09:58:05.749Z,58.71
2022-12-04T10:01:22.806Z,58.73
2022-12-04T10:04:35.775Z,58.74
2022-12-04T10:07:56.763Z,58.53
2022-12-04T10:11:51.176Z,58.55
2022-12-04T10:15:42.456Z,58.60
2022-12-04T10:19:37.316Z,58.58
2022-12-04T10:23:16.369Z,58.50
2022-12-04T10:26:33.657Z,58.30
2022-12-04T10:29:59.439Z,58.27
2022-12-04T10:33:30.057Z,58.27
2022-12-04T10:36:57.954Z,58.15
2022-12-04T10:40:17.404Z,58.15
2022-12-04T10:43:43.472Z,58.18
2022-12-04T10:47:10.056Z,58.05
2022-12-04T10:50:41.547Z,58.04
2022-12-04T10:54:07.274Z,57.90
2022-12-04T11:01:30.402Z,57.81
2022-12-04T11:05:03.630Z,57.69
2022-12-04T11:08:46.428Z,57.65
2022-12-04T11:12:17.124Z,57.58
2022-12-04T11:15:33.564Z,57.68
2022-12-04T11:19:00.749Z,57.66
2022-12-04T11:22:18.776Z,57.65
2022-12-04T11:25:33.987Z,57.60
2022-12-04T11:28:55.202Z,57.32
2022-12-04T11:32:25.169Z,57.27
2022-12-04T11:35:44.834Z,57.08
2022-12-04T11:39:36.311Z,57.26
2022-12-04T11:43:05.212Z,57.27
2022-12-04T11:50:51.254Z,57.11
2022-12-04T11:59:03.602Z,56.96
2022-12-04T12:02:58.559Z,56.93
2022-12-04T12:07:05.260Z,56.84
2022-12-04T12:11:14.241Z,56.60
2022-12-04T12:14:58.432Z,56.52
2022-12-04T12:18:44.316Z,56.55
2022-12-04T12:23:02.385Z,56.55
2022-12-04T12:26:41.641Z,56.37
2022-12-04T12:29:45.719Z,56.35
2022-12-04T12:33:38.427Z,56.43
2022-12-04T12:51:09.073Z,56.01
2022-12-04T12:54:37.270Z,55.95
2022-12-04T13:02:15.068Z,55.83
2022-12-04T13:10:23.480Z,55.59
2022-12-04T13:14:24.230Z,55.44
2022-12-04T13:22:20.612Z,55.55
2022-12-04T13:26:30.685Z,55.56
2022-12-04T13:34:32.813Z,55.36
2022-12-04T13:38:38.240Z,55.36
2022-12-04T13:45:54.139Z,55.26
2022-12-04T13:49:15.807Z,55.28
2022-12-04T13:53:12.248Z,55.26
2022-12-04T13:56:58.614Z,55.21
2022-12-04T14:00:54.589Z,55.20
2022-12-04T14:04:20.196Z,54.97
2022-12-04T14:08:08.336Z,55.04
2022-12-04T14:11:46.375Z,55.02
2022-12-04T14:15:27.766Z,55.01
2022-12-04T14:18:52.534Z,54.98
2022-12-04T14:22:12.130Z,55.03
2022-12-04T14:25:40.610Z,55.03
2022-12-04T14:36:43.361Z,54.92
2022-12-04T14:40:30.914Z,54.91
2022-12-04T14:44:04.510Z,54.92
2022-12-04T14:48:20.923Z,54.89
2022-12-04T14:52:05.170Z,54.82
2022-12-04T14:55:35.922Z,54.83
2022-12-04T14:59:07.667Z,54.78
2022-12-04T15:02:57.641Z,54.75
2022-12-04T15:06:23.689Z,54.71
2022-12-04T15:09:54.862Z,54.69
2022-12-04T15:13:21.299Z,54.66
2022-12-04T15:16:47.749Z,54.62
2022-12-04T15:20:38.647Z,54.64
2022-12-04T15:31:04.096Z,54.53
2022-12-04T15:34:33.846Z,54.50
2022-12-04T15:38:20.845Z,54.49
2022-12-04T15:46:02.743Z,54.29
2022-12-04T15:49:46.355Z,54.37
2022-12-04T15:53:40.226Z,54.26
2022-12-04T15:56:54.145Z,54.22
2022-12-04T16:04:22.143Z,54.25
2022-12-04T16:08:01.390Z,54.12
2022-12-04T16:11:24.112Z,54.02
2022-12-04T16:14:51.337Z,54.03
2022-12-04T16:18:24.849Z,54.05
2022-12-04T16:21:54.566Z,54.10
2022-12-04T16:25:12.675Z,54.11
2022-12-04T16:28:35.969Z,53.95
2022-12-04T16:32:36.903Z,53.99
2022-12-04T16:36:41.558Z,54.04
2022-12-04T16:39:59.960Z,53.99
2022-12-04T16:46:47.409Z,53.97
2022-12-04T16:50:11.010Z,54.02
2022-12-04T16:53:39.328Z,53.94
2022-12-04T16:57:11.574Z,53.92
2022-12-04T17:00:38.035Z,53.78
2022-12-04T17:04:09.291Z,53.91
2022-12-04T17:07:34.207Z,54.00
2022-12-04T17:10:47.260Z,54.01
2022-12-04T17:14:12.848Z,53.99
2022-12-04T17:21:18.125Z,53.86
2022-12-04T17:29:12.959Z,53.83
2022-12-04T17:32:49.850Z,53.86
2022-12-04T17:39:29.740Z,53.81
2022-12-04T17:43:06.099Z,53.82
2022-12-04T17:57:43.857Z,53.65
2022-12-04T18:12:48.596Z,53.67
2022-12-04T18:16:20.252Z,53.75
2022-12-04T18:24:00.985Z,53.89
2022-12-04T18:27:28.291Z,53.89
2022-12-04T18:31:03.841Z,53.76
2022-12-04T18:34:54.668Z,53.76
2022-12-04T18:46:04.044Z,53.75
2022-12-04T18:53:12.662Z,53.65
2022-12-04T18:59:40.503Z,53.59
2022-12-04T19:03:01.469Z,53.65
2022-12-04T19:06:11.328Z,53.76
2022-12-04T19:10:09.380Z,53.81
2022-12-04T19:13:02.639Z,53.79
2022-12-04T19:16:32.436Z,53.74
2022-12-04T19:19:59.909Z,53.82
2022-12-04T19:23:30.644Z,53.80
2022-12-04T19:27:20.254Z,53.82
2022-12-04T21:25:32.831Z,53.85
2022-12-04T21:28:51.891Z,54.24
2022-12-04T21:35:59.198Z,54.26
2022-12-04T21:39:29.390Z,54.26
2022-12-04T21:42:59.571Z,54.31
2022-12-04T21:46:23.483Z,54.31
2022-12-04T21:49:50.407Z,54.22
2022-12-04T21:53:25.597Z,54.23
2022-12-04T21:56:43.876Z,54.26
2022-12-04T21:59:59.310Z,54.25
2022-12-04T22:03:11.270Z,54.21
2022-12-04T22:06:26.523Z,54.18
2022-12-04T22:10:02.992Z,54.11
2022-12-04T22:13:17.929Z,54.17
2022-12-04T22:16:41.314Z,54.15
2022-12-04T22:20:03.557Z,54.17
2022-12-04T22:23:28.597Z,54.28
2022-12-04T22:27:18.771Z,54.34
2022-12-04T22:30:47.452Z,54.38
2022-12-04T22:34:04.198Z,54.39
2022-12-04T22:37:20.362Z,54.40
2022-12-04T22:40:48.612Z,54.41
2022-12-04T22:44:19.767Z,54.38
2022-12-04T22:47:36.245Z,54.42
2022-12-04T22:54:15.898Z,54.31
2022-12-04T22:57:50.691Z,54.28
2022-12-04T23:01:37.010Z,54.36
2022-12-04T23:04:57.317Z,54.41
2022-12-04T23:08:15.534Z,54.37
2022-12-04T23:11:33.673Z,54.42
2022-12-04T23:14:53.106Z,54.50
2022-12-04T23:18:06.445Z,54.54
2022-12-04T23:21:42.307Z,54.51
2022-12-04T23:24:59.032Z,54.52
2022-12-04T23:28:16.373Z,54.54
2022-12-04T23:31:26.370Z,54.52
2022-12-04T23:34:46.638Z,54.48
2022-12-04T23:37:59.483Z,54.56
2022-12-04T23:41:39.862Z,54.60
2022-12-04T23:45:13.493Z,54.66
2022-12-04T23:48:44.667Z,54.65
2022-12-04T23:52:11.738Z,54.68
2022-12-04T23:59:17.398Z,54.66
